地図

経路データ

SID SEASON NUMBER BASIN SUBBASIN NAME ISO_TIME NATURE LAT LON WMO_WIND WMO_PRES WMO_AGENCY TRACK_TYPE DIST2LAND LANDFALL IFLAG USA_AGENCY USA_ATCF_ID USA_LAT USA_LON USA_RECORD USA_STATUS USA_WIND USA_PRES USA_SSHS USA_R34_NE USA_R34_SE USA_R34_SW USA_R34_NW USA_R50_NE USA_R50_SE USA_R50_SW USA_R50_NW USA_R64_NE USA_R64_SE USA_R64_SW USA_R64_NW USA_POCI USA_ROCI USA_RMW USA_EYE TOKYO_LAT TOKYO_LON TOKYO_GRADE TOKYO_WIND TOKYO_PRES TOKYO_R50_DIR TOKYO_R50_LONG TOKYO_R50_SHORT TOKYO_R30_DIR TOKYO_R30_LONG TOKYO_R30_SHORT TOKYO_LAND CMA_LAT CMA_LON CMA_CAT CMA_WIND CMA_PRES HKO_LAT HKO_LON HKO_CAT HKO_WIND HKO_PRES NEWDELHI_LAT NEWDELHI_LON NEWDELHI_GRADE NEWDELHI_WIND NEWDELHI_PRES NEWDELHI_CI NEWDELHI_DP NEWDELHI_POCI REUNION_LAT REUNION_LON REUNION_TYPE REUNION_WIND REUNION_PRES REUNION_TNUM REUNION_CI REUNION_RMW REUNION_R34_NE REUNION_R34_SE REUNION_R34_SW REUNION_R34_NW REUNION_R50_NE REUNION_R50_SE REUNION_R50_SW REUNION_R50_NW REUNION_R64_NE REUNION_R64_SE REUNION_R64_SW REUNION_R64_NW BOM_LAT BOM_LON BOM_TYPE BOM_WIND BOM_PRES BOM_TNUM BOM_CI BOM_RMW BOM_R34_NE BOM_R34_SE BOM_R34_SW BOM_R34_NW BOM_R50_NE BOM_R50_SE BOM_R50_SW BOM_R50_NW BOM_R64_NE BOM_R64_SE BOM_R64_SW BOM_R64_NW BOM_ROCI BOM_POCI BOM_EYE BOM_POS_METHOD BOM_PRES_METHOD NADI_LAT NADI_LON NADI_CAT NADI_WIND NADI_PRES WELLINGTON_LAT WELLINGTON_LON WELLINGTON_WIND WELLINGTON_PRES DS824_LAT DS824_LON DS824_STAGE DS824_WIND DS824_PRES TD9636_LAT TD9636_LON TD9636_STAGE TD9636_WIND TD9636_PRES TD9635_LAT TD9635_LON TD9635_WIND TD9635_PRES TD9635_ROCI NEUMANN_LAT NEUMANN_LON NEUMANN_CLASS NEUMANN_WIND NEUMANN_PRES MLC_LAT MLC_LON MLC_CLASS MLC_WIND MLC_PRES USA_GUST BOM_GUST BOM_GUST_PER REUNION_GUST REUNION_GUST_PER USA_SEAHGT USA_SEARAD_NE USA_SEARAD_SE USA_SEARAD_SW USA_SEARAD_NW STORM_SPEED STORM_DIR
1945222N22149 1945 44 WP MM FRANCES 1945-08-09 12:00:00 TS 22.0000 149.000 main 1690 1616 O________OOO__ jtwc_wp WP111945 22.0000 149.000 25 -1 22.0000 149.000 TC 25 22.0000 149.000 1 25 22.0000 149.000 25 1001 180 13 335
1945222N22149 1945 44 WP MM FRANCES 1945-08-09 15:00:00 TS 22.5894 148.698 main 1616 1543 P________PPP__ WP111945 22.5727 148.678 27 -1 22.5727 148.678 TC 27 22.6394 148.757 1 26 22.5727 148.678 27 1001 240 13 337
1945222N22149 1945 44 WP MM FRANCES 1945-08-09 18:00:00 TS 23.2207 148.428 main 1543 1465 O________OPO__ jtwc_wp WP111945 23.2000 148.400 30 -1 23.2000 148.400 TC 30 23.2829 148.511 1 27 23.2000 148.400 30 1001 300 14 341
1945222N22149 1945 44 WP MM FRANCES 1945-08-09 21:00:00 TS 23.9143 148.209 main 1465 1388 P________PPP__ WP111945 23.9074 148.192 30 -1 23.9074 148.192 TC 30 23.9349 148.259 1 28 23.9074 148.192 30 1000 360 14 344
1945222N22149 1945 44 WP MM FRANCES 1945-08-10 00:00:00 TS 24.6000 148.000 main 1388 1321 O________OOO__ jtwc_wp WP111945 24.6000 148.000 30 -1 24.6000 148.000 TC 30 24.6000 148.000 1 30 24.6000 148.000 30 1000 420 13 342
1945222N22149 1945 44 WP MM FRANCES 1945-08-10 03:00:00 TS 25.1869 147.751 main 1321 1257 P________PPP__ WP111945 25.1575 147.757 32 -1 25.1575 147.757 TC 32 25.2752 147.734 1 31 25.1575 147.757 32 999 450 13 338
1945222N22149 1945 44 WP MM FRANCES 1945-08-10 06:00:00 TS 25.7569 147.493 main 1248 1175 O________OPO__ jtwc_wp WP111945 25.7000 147.500 35 0 25.7000 147.500 TC 35 25.9274 147.471 1 32 25.7000 147.500 35 998 480 13 339
1945222N22149 1945 44 WP MM FRANCES 1945-08-10 09:00:00 TS 26.4309 147.232 main 1175 1108 P________PPP__ WP111945 26.4025 147.235 35 0 26.4025 147.235 TC 35 26.5159 147.222 1 33 26.4025 147.235 35 997 450 13 341
1945222N22149 1945 44 WP MM FRANCES 1945-08-10 12:00:00 TS 27.0000 147.000 main 1108 1069 O________OOO__ jtwc_wp WP111945 27.0000 147.000 35 0 27.0000 147.000 TC 35 27.0000 147.000 2 35 27.0000 147.000 35 997 420 9 337
1945222N22149 1945 44 WP MM FRANCES 1945-08-10 15:00:00 TS 27.2760 146.829 main 1069 1055 P________PPP__ WP111945 27.2599 146.834 37 0 27.2599 146.834 TC 37 27.3244 146.812 2 36 27.2599 146.834 37 996 420 5 328
1945222N22149 1945 44 WP MM FRANCES 1945-08-10 18:00:00 TS 27.4368 146.688 main 1055 1025 O________OPO__ jtwc_wp WP111945 27.4000 146.700 40 0 27.4000 146.700 TC 40 27.5472 146.653 2 37 27.4000 146.700 40 995 420 5 326
1945222N22149 1945 44 WP MM FRANCES 1945-08-10 21:00:00 TS 27.6566 146.536 main 1016 992 P________PPP__ WP111945 27.6350 146.542 40 0 27.6350 146.542 TC 40 27.7214 146.518 2 38 27.6350 146.542 40 994 420 5 331
1945222N22149 1945 44 WP MM FRANCES 1945-08-11 00:00:00 TS 27.9000 146.400 main 992 958 O________OOO__ jtwc_wp WP111945 27.9000 146.400 40 0 27.9000 146.400 TC 40 27.9000 146.400 2 40 27.9000 146.400 40 994 420 6 336
1945222N22149 1945 44 WP MM FRANCES 1945-08-11 03:00:00 TS 28.1871 146.277 main 958 925 P________PPP__ WP111945 28.2000 146.292 40 0 28.2000 146.292 TC 40 28.1483 146.230 2 42 28.2000 146.292 40 993 390 6 341
1945222N22149 1945 44 WP MM FRANCES 1945-08-11 06:00:00 TS 28.4781 146.170 main 925 896 O________OPO__ jtwc_wp WP111945 28.5000 146.200 40 0 28.5000 146.200 TC 40 28.4123 146.082 2 45 28.5000 146.200 40 993 360 6 339
1945222N22149 1945 44 WP MM FRANCES 1945-08-11 09:00:00 TS 28.7306 146.040 main 896 868 P________PPP__ WP111945 28.7425 146.055 45 0 28.7425 146.055 TC 45 28.6951 145.993 2 47 28.7425 146.055 45 992 360 5 344
1945222N22149 1945 44 WP MM FRANCES 1945-08-11 12:00:00 TS 29.0000 146.000 main 868 847 O________OOO__ jtwc_wp WP111945 29.0000 146.000 50 0 29.0000 146.000 TC 50 29.0000 146.000 2 50 29.0000 146.000 50 992 360 6 9
1945222N22149 1945 44 WP MM FRANCES 1945-08-11 15:00:00 TS 29.3314 146.142 main 847 831 P________PPP__ WP111945 29.3350 146.140 50 0 29.3350 146.140 TC 50 29.3206 146.148 2 47 29.3350 146.140 50 992 360 8 27
1945222N22149 1945 44 WP MM FRANCES 1945-08-11 18:00:00 TS 29.6907 146.398 main 831 819 O________OPO__ jtwc_wp WP111945 29.7000 146.400 50 0 29.7000 146.400 TC 50 29.6629 146.394 2 45 29.7000 146.400 50 992 360 9 34
1945222N22149 1945 44 WP MM FRANCES 1945-08-11 21:00:00 TS 30.0436 146.704 main 826 815 P________PPP__ WP111945 30.0501 146.707 45 0 30.0501 146.707 TC 45 30.0238 146.692 2 42 30.0501 146.707 45 992 360 9 36
1945222N22149 1945 44 WP MM FRANCES 1945-08-12 00:00:00 TS 30.4000 147.000 main 815 800 O________OOO__ jtwc_wp WP111945 30.4000 147.000 40 0 30.4000 147.000 TC 40 30.4000 147.000 2 40 30.4000 147.000 40 993 360 8 29
1945222N22149 1945 44 WP MM FRANCES 1945-08-12 03:00:00 TS 30.7462 147.160 main 807 783 P________PPP__ WP111945 30.7347 147.143 40 0 30.7347 147.143 TC 40 30.7807 147.211 2 40 30.7347 147.143 40 993 360 8 22
1945222N22149 1945 44 WP MM FRANCES 1945-08-12 06:00:00 TS 31.1190 147.332 main 783 768 O________OPO__ jtwc_wp WP111945 31.1000 147.300 40 0 31.1000 147.300 TC 40 31.1762 147.428 2 40 31.1000 147.300 40 993 360 9 26
1945222N22149 1945 44 WP MM FRANCES 1945-08-12 09:00:00 TS 31.5527 147.618 main 769 769 P________PPP__ WP111945 31.5424 147.598 40 0 31.5424 147.598 TC 40 31.5836 147.680 2 40 31.5424 147.598 40 993 360 11 33
1945222N22149 1945 44 WP MM FRANCES 1945-08-12 12:00:00 TS 32.0000 148.000 main 773 773 O________OOO__ jtwc_wp WP111945 32.0000 148.000 40 0 32.0000 148.000 TC 40 32.0000 148.000 2 40 32.0000 148.000 40 994 360 11 40
1945222N22149 1945 44 WP MM FRANCES 1945-08-12 15:00:00 TS 32.4036 148.465 main 789 783 P________PPP__ WP111945 32.4000 148.478 40 0 32.4000 148.478 TC 40 32.4143 148.428 2 40 32.4000 148.478 40 994 360 12 46
1945222N22149 1945 44 WP MM FRANCES 1945-08-12 18:00:00 TS 32.8089 148.981 main 809 805 O________OPO__ jtwc_wp WP111945 32.8000 149.000 40 0 32.8000 149.000 TC 40 32.8357 148.925 2 40 32.8000 149.000 40 994 360 12 46
1945222N22149 1945 44 WP MM FRANCES 1945-08-12 21:00:00 TS 33.2478 149.496 main 834 830 P________PPP__ WP111945 33.2424 149.508 40 0 33.2424 149.508 TC 40 33.2642 149.460 2 40 33.2424 149.508 40 994 360 12 44
1945222N22149 1945 44 WP MM FRANCES 1945-08-13 00:00:00 TS 33.7000 150.000 main 859 859 O________OOO__ jtwc_wp WP111945 33.7000 150.000 40 0 33.7000 150.000 TC 40 33.7000 150.000 2 40 33.7000 150.000 40 994 360 12 42
1945222N22149 1945 44 WP MM FRANCES 1945-08-13 03:00:00 TS 34.1481 150.463 main 891 888 P________PPP__ WP111945 34.1496 150.443 40 0 34.1496 150.443 TC 40 34.1436 150.520 2 40 34.1496 150.443 40 994 390 12 41
1945222N22149 1945 44 WP MM FRANCES 1945-08-13 06:00:00 TS 34.5983 150.930 main 914 914 O________OPO__ jtwc_wp WP111945 34.6000 150.900 40 0 34.6000 150.900 TC 40 34.5931 151.022 2 40 34.6000 150.900 40 995 420 12 42
1945222N22149 1945 44 WP MM FRANCES 1945-08-13 09:00:00 TS 35.0496 151.448 main 952 952 P________PPP__ WP111945 35.0507 151.426 40 0 35.0507 151.426 TC 40 35.0462 151.512 2 40 35.0507 151.426 40 995 450 13 44
1945222N22149 1945 44 WP MM FRANCES 1945-08-13 12:00:00 TS 35.5000 152.000 main 977 O________OOO__ jtwc_wp WP111945 35.5000 152.000 40 0 35.5000 152.000 TC 40 35.5000 152.000 2 40 35.5000 152.000 40 996 480 13 45

デジタル台風データ・検索

IBTrACS Databaseについて

本データベースは、米国NOAAが公開する1842年以降の世界の熱帯低気圧のベストトラックデータアーカイブInternational Best Track Archive for Climate Stewardship (IBTrACS)を、ウェブで閲覧しやすい形式に変換したものです。

最終更新日:2021-10-25